createdAt,value
2023-01-17T00:00:34.091Z,0
2023-01-17T00:02:23.499Z,0
2023-01-17T00:03:27.423Z,0
2023-01-17T00:04:32.776Z,0
2023-01-17T00:05:26.800Z,0
2023-01-17T00:06:29.540Z,0
2023-01-17T00:07:48.201Z,0
2023-01-17T00:09:24.605Z,0
2023-01-17T00:10:31.143Z,0
2023-01-17T00:11:21.947Z,0
2023-01-17T00:13:30.982Z,0
2023-01-17T00:14:22.765Z,0
2023-01-17T00:15:26.058Z,0
2023-01-17T00:17:32.740Z,0
2023-01-17T00:18:27.116Z,0
2023-01-17T00:19:22.580Z,0
2023-01-17T00:20:27.810Z,0
2023-01-17T00:21:25.806Z,0
2023-01-17T00:23:36.437Z,0
2023-01-17T00:24:30.792Z,0
2023-01-17T00:25:29.513Z,0
2023-01-17T00:26:24.141Z,0
2023-01-17T00:27:37.983Z,0
2023-01-17T00:28:30.020Z,0
2023-01-17T00:29:23.218Z,0
2023-01-17T00:30:35.512Z,0
2023-01-17T00:31:24.729Z,0
2023-01-17T00:32:26.948Z,0
2023-01-17T00:33:28.338Z,0
2023-01-17T00:34:19.573Z,0
2023-01-17T00:35:29.270Z,0
2023-01-17T00:36:26.989Z,0
2023-01-17T00:38:42.900Z,0
2023-01-17T00:39:37.781Z,0
2023-01-17T00:40:24.651Z,0
2023-01-17T00:41:24.200Z,0
2023-01-17T00:42:21.942Z,0
2023-01-17T00:43:26.338Z,0
2023-01-17T00:44:24.072Z,0
2023-01-17T00:45:33.004Z,0
2023-01-17T00:46:27.779Z,0
2023-01-17T00:47:33.975Z,0
2023-01-17T00:48:25.254Z,0
2023-01-17T00:49:22.699Z,0
2023-01-17T00:50:26.471Z,0
2023-01-17T00:51:27.702Z,0
2023-01-17T00:52:22.575Z,0
2023-01-17T00:53:45.134Z,0
2023-01-17T00:54:32.912Z,0
2023-01-17T00:55:22.189Z,0
2023-01-17T00:56:26.101Z,0
2023-01-17T00:58:31.879Z,0
2023-01-17T00:59:27.171Z,0
2023-01-17T01:00:27.442Z,0
2023-01-17T01:01:22.831Z,0
2023-01-17T01:02:28.365Z,0
2023-01-17T01:03:29.655Z,0
2023-01-17T01:04:24.662Z,0
2023-01-17T01:06:20.143Z,0
2023-01-17T01:07:21.909Z,0
2023-01-17T01:08:22.860Z,0
2023-01-17T01:09:28.366Z,0
2023-01-17T01:10:29.290Z,0
2023-01-17T01:11:27.309Z,0
2023-01-17T01:12:22.279Z,0
2023-01-17T01:13:23.856Z,0
2023-01-17T01:14:27.891Z,0
2023-01-17T01:15:22.635Z,0
2023-01-17T01:16:25.936Z,0
2023-01-17T01:17:39.678Z,0
2023-01-17T01:18:25.147Z,0
2023-01-17T01:19:26.159Z,0
2023-01-17T01:20:26.116Z,0
2023-01-17T01:21:29.633Z,0
2023-01-17T01:22:22.600Z,0
2023-01-17T01:24:23.010Z,0
2023-01-17T01:25:36.794Z,0
2023-01-17T01:26:21.170Z,0
2023-01-17T01:27:21.957Z,0
2023-01-17T01:28:27.659Z,0
2023-01-17T01:29:23.004Z,0
2023-01-17T01:30:22.018Z,0
2023-01-17T01:31:25.219Z,0
2023-01-17T01:32:24.999Z,0
2023-01-17T01:33:28.071Z,0
2023-01-17T01:34:26.145Z,0
2023-01-17T01:35:27.265Z,0
2023-01-17T01:36:22.935Z,0
2023-01-17T01:37:25.694Z,0
2023-01-17T01:38:31.053Z,0
2023-01-17T01:39:24.922Z,0
2023-01-17T01:40:22.371Z,0
2023-01-17T01:41:32.743Z,0
2023-01-17T01:42:23.112Z,0
2023-01-17T01:43:23.127Z,0
2023-01-17T01:44:24.638Z,0
2023-01-17T01:45:21.082Z,0
2023-01-17T01:46:24.961Z,0
2023-01-17T01:47:22.513Z,0
2023-01-17T01:48:32.324Z,0
2023-01-17T01:49:27.266Z,0
2023-01-17T01:50:24.082Z,0
2023-01-17T01:51:33.985Z,0
2023-01-17T01:52:25.076Z,0
2023-01-17T01:53:20.325Z,0
2023-01-17T01:54:21.039Z,0
2023-01-17T01:55:21.579Z,0
2023-01-17T01:56:28.368Z,0
2023-01-17T01:57:24.832Z,0
2023-01-17T01:58:35.765Z,0
2023-01-17T01:59:30.764Z,0
2023-01-17T02:00:29.059Z,0
2023-01-17T02:08:56.224Z,0
2023-01-17T02:09:46.135Z,0
2023-01-17T02:10:28.019Z,0
2023-01-17T02:15:27.823Z,0
2023-01-17T02:16:36.184Z,0
2023-01-17T02:18:04.928Z,0
2023-01-17T02:18:27.484Z,0
2023-01-17T02:19:33.138Z,0
2023-01-17T02:20:23.361Z,0
2023-01-17T02:21:24.827Z,0
2023-01-17T02:22:21.830Z,0
2023-01-17T02:23:20.809Z,0
2023-01-17T02:24:28.684Z,0
2023-01-17T02:25:22.806Z,0
2023-01-17T02:26:34.621Z,0
2023-01-17T02:27:31.134Z,0
2023-01-17T02:28:21.786Z,0
2023-01-17T02:29:26.526Z,0
2023-01-17T02:30:23.706Z,0
2023-01-17T02:31:45.905Z,0
2023-01-17T02:32:24.522Z,0
2023-01-17T02:33:34.129Z,0
2023-01-17T02:34:32.770Z,0
2023-01-17T02:35:26.198Z,0
2023-01-17T02:37:27.802Z,0
2023-01-17T02:38:20.843Z,0
2023-01-17T02:39:34.772Z,0
2023-01-17T02:41:30.739Z,0
2023-01-17T02:42:26.520Z,0
2023-01-17T02:43:23.587Z,0
2023-01-17T02:44:33.266Z,0
2023-01-17T02:45:26.929Z,0
2023-01-17T02:46:24.119Z,0
2023-01-17T02:47:23.357Z,0
2023-01-17T02:48:28.991Z,0
2023-01-17T02:49:34.785Z,0
2023-01-17T02:51:19.898Z,0
2023-01-17T02:52:32.540Z,0
2023-01-17T02:53:21.865Z,0
2023-01-17T02:54:26.507Z,0
2023-01-17T02:55:28.907Z,0
2023-01-17T02:56:41.069Z,0
2023-01-17T02:57:25.092Z,0
2023-01-17T02:58:24.543Z,0
2023-01-17T02:59:32.593Z,0
2023-01-17T03:00:26.626Z,0
2023-01-17T03:01:29.907Z,0
2023-01-17T03:02:30.430Z,0
2023-01-17T03:03:28.035Z,0
2023-01-17T03:04:22.244Z,0
2023-01-17T03:05:26.181Z,0
2023-01-17T03:06:21.136Z,0
2023-01-17T03:07:29.991Z,0
2023-01-17T03:08:24.250Z,0
2023-01-17T03:09:28.763Z,0
2023-01-17T03:10:24.743Z,0
2023-01-17T03:11:41.506Z,0
2023-01-17T03:12:27.039Z,0
2023-01-17T03:13:26.349Z,0
2023-01-17T03:14:24.884Z,0
2023-01-17T03:15:26.973Z,0
2023-01-17T03:16:24.549Z,0
2023-01-17T03:17:39.858Z,0
2023-01-17T03:18:47.658Z,0
2023-01-17T03:20:31.753Z,0
2023-01-17T03:21:23.308Z,0
2023-01-17T03:23:26.181Z,0
2023-01-17T03:24:25.207Z,0
2023-01-17T03:25:21.978Z,0
2023-01-17T03:26:37.072Z,0
2023-01-17T03:27:20.401Z,0
2023-01-17T03:28:29.017Z,0
2023-01-17T03:29:20.853Z,0
2023-01-17T03:30:29.164Z,0
2023-01-17T03:31:21.100Z,0
2023-01-17T03:32:21.661Z,0
2023-01-17T03:33:31.133Z,0
2023-01-17T03:34:26.074Z,0
2023-01-17T03:35:23.982Z,0
2023-01-17T03:36:24.513Z,0
2023-01-17T03:37:34.007Z,0
2023-01-17T03:38:25.239Z,0
2023-01-17T03:39:35.020Z,0
2023-01-17T03:40:40.781Z,0
2023-01-17T03:41:27.208Z,0
2023-01-17T03:42:25.686Z,0
2023-01-17T03:43:28.799Z,0
2023-01-17T03:44:21.836Z,0
2023-01-17T03:45:24.078Z,0
2023-01-17T03:46:21.678Z,0
2023-01-17T03:47:32.105Z,0
2023-01-17T03:48:28.901Z,0
2023-01-17T03:49:23.056Z,0
2023-01-17T03:50:34.929Z,0
2023-01-17T03:51:25.833Z,0
2023-01-17T03:52:25.091Z,0
2023-01-17T03:53:26.541Z,0
2023-01-17T03:54:31.005Z,0
2023-01-17T03:55:27.013Z,0
2023-01-17T03:56:24.799Z,0
2023-01-17T03:57:34.062Z,0
2023-01-17T03:58:30.019Z,0
2023-01-17T03:59:28.901Z,0
2023-01-17T04:00:21.264Z,0
2023-01-17T04:01:23.019Z,0
2023-01-17T04:02:28.656Z,0
2023-01-17T04:03:23.193Z,0
2023-01-17T04:04:34.439Z,0
2023-01-17T04:05:30.929Z,0
2023-01-17T04:06:28.724Z,0
2023-01-17T04:07:20.658Z,0
2023-01-17T04:08:28.364Z,0
2023-01-17T04:09:20.020Z,0
2023-01-17T04:10:25.031Z,0
2023-01-17T04:11:38.519Z,0
2023-01-17T04:12:30.117Z,0
2023-01-17T04:13:26.620Z,0
2023-01-17T04:14:21.012Z,0
2023-01-17T04:15:31.711Z,0
2023-01-17T04:16:23.735Z,0
2023-01-17T04:17:23.069Z,0
2023-01-17T04:18:33.953Z,0
2023-01-17T04:19:30.929Z,0
2023-01-17T04:20:25.420Z,0
2023-01-17T04:21:24.775Z,0
2023-01-17T04:22:21.743Z,0
2023-01-17T04:23:27.823Z,0
2023-01-17T04:24:24.471Z,0
2023-01-17T04:25:34.384Z,0
2023-01-17T04:26:29.967Z,0
2023-01-17T04:27:41.223Z,0
2023-01-17T04:28:22.093Z,0
2023-01-17T04:29:26.777Z,0
2023-01-17T04:30:27.991Z,0
2023-01-17T04:31:24.404Z,0
2023-01-17T04:32:21.536Z,0
2023-01-17T04:33:32.238Z,0
2023-01-17T04:34:25.205Z,0
2023-01-17T04:35:31.146Z,0
2023-01-17T04:36:30.694Z,0
2023-01-17T04:37:25.335Z,0
2023-01-17T04:38:22.281Z,0
2023-01-17T04:39:24.104Z,0
2023-01-17T04:40:31.325Z,0
2023-01-17T04:41:46.942Z,0
2023-01-17T04:43:34.139Z,0
2023-01-17T04:44:28.182Z,0
2023-01-17T04:45:25.353Z,0
2023-01-17T04:46:27.281Z,0
2023-01-17T04:47:29.049Z,0
2023-01-17T04:48:25.437Z,0
2023-01-17T04:49:35.409Z,0
2023-01-17T04:50:22.673Z,0
2023-01-17T04:51:32.469Z,0
2023-01-17T04:52:25.952Z,0
2023-01-17T04:53:35.002Z,0
2023-01-17T04:54:23.242Z,0
2023-01-17T04:55:24.035Z,0
2023-01-17T04:56:39.715Z,0
2023-01-17T04:57:26.567Z,0
2023-01-17T04:58:27.105Z,0
2023-01-17T04:59:31.301Z,0
2023-01-17T05:00:24.153Z,0
2023-01-17T05:01:22.265Z,0
2023-01-17T05:02:20.513Z,0
2023-01-17T05:03:45.941Z,0
2023-01-17T05:04:28.923Z,0
2023-01-17T05:05:27.185Z,0
2023-01-17T05:06:22.601Z,0
2023-01-17T05:07:27.139Z,0
2023-01-17T05:08:19.794Z,0
2023-01-17T05:09:26.412Z,0
2023-01-17T05:10:36.480Z,0
2023-01-17T05:11:31.313Z,0
2023-01-17T05:12:28.147Z,0
2023-01-17T05:13:41.559Z,0
2023-01-17T05:14:31.919Z,0
2023-01-17T05:15:26.499Z,0
2023-01-17T05:16:27.503Z,0
2023-01-17T05:17:21.570Z,0
2023-01-17T05:18:32.509Z,0
2023-01-17T05:19:21.563Z,0
2023-01-17T05:20:45.409Z,0
2023-01-17T05:22:29.315Z,0
2023-01-17T05:23:22.911Z,0
2023-01-17T05:25:32.493Z,0
2023-01-17T05:26:24.289Z,0
2023-01-17T05:27:38.698Z,0
2023-01-17T05:28:33.373Z,0
2023-01-17T05:29:30.888Z,0
2023-01-17T05:30:36.549Z,0
2023-01-17T05:31:28.808Z,0
2023-01-17T05:32:23.284Z,0
2023-01-17T05:33:27.310Z,0
2023-01-17T05:34:20.613Z,0
2023-01-17T05:36:36.591Z,0
2023-01-17T05:37:23.974Z,0
2023-01-17T05:38:22.584Z,0
2023-01-17T05:40:27.483Z,0
2023-01-17T05:41:39.524Z,0
2023-01-17T05:42:34.388Z,3
2023-01-17T05:43:29.179Z,3
2023-01-17T05:44:26.735Z,0
2023-01-17T05:46:20.032Z,1
2023-01-17T05:47:23.648Z,2
2023-01-17T05:48:21.214Z,0
2023-01-17T05:51:23.860Z,4
2023-01-17T06:36:23.112Z,0
2023-01-17T06:42:01.217Z,0
2023-01-17T06:56:32.883Z,0
2023-01-17T06:57:42.864Z,0
2023-01-17T06:58:23.221Z,0
2023-01-17T06:59:29.856Z,0
2023-01-17T07:03:20.749Z,0
2023-01-17T07:04:23.663Z,0
2023-01-17T07:05:23.216Z,0
2023-01-17T07:06:33.435Z,0
2023-01-17T07:07:39.916Z,0
2023-01-17T07:09:21.365Z,0
2023-01-17T07:10:26.741Z,0
2023-01-17T07:11:41.667Z,0
2023-01-17T07:13:51.480Z,0
2023-01-17T07:14:44.370Z,0
2023-01-17T07:15:25.008Z,0
2023-01-17T07:16:33.641Z,0
2023-01-17T07:17:22.425Z,0
2023-01-17T07:18:21.754Z,0
2023-01-17T07:19:23.208Z,0
2023-01-17T07:21:03.048Z,0
2023-01-17T07:21:24.369Z,0
2023-01-17T07:22:41.671Z,0
2023-01-17T07:24:26.836Z,0
2023-01-17T07:25:27.761Z,0
2023-01-17T07:26:24.594Z,0
2023-01-17T07:27:30.316Z,0
2023-01-17T07:28:30.003Z,0
2023-01-17T07:29:46.708Z,0
2023-01-17T07:30:39.628Z,0
2023-01-17T07:31:31.316Z,0
2023-01-17T07:32:23.826Z,0
2023-01-17T07:33:23.143Z,0
2023-01-17T07:34:34.815Z,0
2023-01-17T07:35:29.332Z,0
2023-01-17T07:36:41.499Z,0
2023-01-17T07:37:36.145Z,0
2023-01-17T07:38:27.328Z,0
2023-01-17T07:39:27.899Z,0
2023-01-17T07:40:23.418Z,0
2023-01-17T07:41:20.189Z,0
2023-01-17T07:42:30.940Z,0
2023-01-17T07:43:25.530Z,0
2023-01-17T07:44:21.530Z,0
2023-01-17T07:45:31.270Z,0
2023-01-17T07:46:32.051Z,0
2023-01-17T07:47:25.317Z,0
2023-01-17T07:48:23.671Z,0
2023-01-17T07:49:24.332Z,0
2023-01-17T07:50:34.416Z,0
2023-01-17T07:51:21.195Z,0
2023-01-17T07:52:33.093Z,0
2023-01-17T07:53:38.664Z,0
2023-01-17T07:54:23.384Z,0
2023-01-17T07:55:23.782Z,0
2023-01-17T07:56:21.405Z,0
2023-01-17T07:57:26.090Z,0
2023-01-17T07:58:22.502Z,0
2023-01-17T07:59:33.541Z,0
2023-01-17T08:00:21.267Z,0
2023-01-17T08:01:23.415Z,0
2023-01-17T08:02:28.121Z,0
2023-01-17T08:03:19.657Z,0
2023-01-17T08:04:39.308Z,0
2023-01-17T08:05:21.529Z,0
2023-01-17T08:06:27.426Z,0
2023-01-17T08:07:27.144Z,0
2023-01-17T08:08:23.220Z,0
2023-01-17T08:09:22.148Z,0
2023-01-17T08:10:23.829Z,0
2023-01-17T08:11:23.268Z,0
2023-01-17T08:12:21.658Z,0
2023-01-17T08:13:45.982Z,0
2023-01-17T08:14:27.593Z,0
2023-01-17T08:15:26.028Z,0
2023-01-17T08:16:35.717Z,0
2023-01-17T08:17:21.742Z,0
2023-01-17T08:18:22.605Z,0
2023-01-17T08:19:21.391Z,0
2023-01-17T08:20:33.477Z,0
2023-01-17T08:21:27.579Z,0
2023-01-17T08:22:23.639Z,0
2023-01-17T08:23:26.887Z,0
2023-01-17T08:24:34.028Z,0
2023-01-17T08:25:30.939Z,0
2023-01-17T08:26:23.849Z,0
2023-01-17T08:27:21.444Z,0
2023-01-17T08:28:41.643Z,0
2023-01-17T08:29:23.701Z,0
2023-01-17T08:30:30.300Z,0
2023-01-17T08:31:32.159Z,0
2023-01-17T08:32:29.918Z,0
2023-01-17T08:33:22.695Z,0
2023-01-17T08:34:26.199Z,0
2023-01-17T08:35:27.475Z,0
2023-01-17T08:36:24.953Z,0
2023-01-17T08:37:33.531Z,0
2023-01-17T08:38:20.380Z,0
2023-01-17T08:39:25.445Z,0
2023-01-17T08:40:21.625Z,0
2023-01-17T08:41:21.539Z,0
2023-01-17T08:42:27.534Z,0
2023-01-17T08:43:25.419Z,0
2023-01-17T08:44:38.108Z,0
2023-01-17T08:45:24.977Z,0
2023-01-17T08:46:27.256Z,0
2023-01-17T08:47:22.126Z,0
2023-01-17T08:48:24.709Z,0
2023-01-17T08:49:20.787Z,0
2023-01-17T08:50:24.098Z,0
2023-01-17T08:51:19.537Z,0
2023-01-17T08:52:25.639Z,0
2023-01-17T08:53:26.436Z,0
2023-01-17T08:54:21.553Z,0
2023-01-17T08:55:28.674Z,0
2023-01-17T08:56:24.868Z,0
2023-01-17T08:57:23.405Z,0
2023-01-17T08:58:19.494Z,0
2023-01-17T08:59:29.795Z,0
2023-01-17T09:01:22.949Z,0
2023-01-17T09:02:22.833Z,0
2023-01-17T09:03:28.967Z,0
2023-01-17T09:04:24.022Z,0
2023-01-17T09:05:19.428Z,0
2023-01-17T09:06:33.451Z,0
2023-01-17T09:07:25.883Z,0
2023-01-17T09:08:23.048Z,0
2023-01-17T09:09:33.014Z,0
2023-01-17T09:10:32.639Z,0
2023-01-17T09:11:27.469Z,0
2023-01-17T09:12:20.147Z,0
2023-01-17T09:13:20.807Z,0
2023-01-17T09:14:21.509Z,0
2023-01-17T09:15:22.437Z,0
2023-01-17T09:16:45.428Z,0
2023-01-17T09:17:31.306Z,0
2023-01-17T09:19:26.125Z,0
2023-01-17T09:20:29.669Z,0
2023-01-17T09:21:25.628Z,0
2023-01-17T09:22:21.321Z,0
2023-01-17T09:23:32.645Z,0
2023-01-17T09:24:27.530Z,0
2023-01-17T09:25:19.493Z,0
2023-01-17T09:26:19.258Z,0
2023-01-17T09:27:21.286Z,0
2023-01-17T09:28:29.362Z,0
2023-01-17T09:29:21.769Z,0
2023-01-17T09:30:23.663Z,0
2023-01-17T09:31:29.584Z,0
2023-01-17T09:32:22.578Z,0
2023-01-17T09:33:21.939Z,0
2023-01-17T09:34:23.463Z,0
2023-01-17T09:35:25.760Z,0
2023-01-17T09:36:21.658Z,3
2023-01-17T09:37:31.501Z,1
2023-01-17T09:38:27.484Z,0
2023-01-17T09:39:27.163Z,0
2023-01-17T09:40:19.667Z,0
2023-01-17T09:41:29.399Z,0
2023-01-17T09:42:20.800Z,0
2023-01-17T09:43:21.665Z,0
2023-01-17T09:44:31.503Z,0
2023-01-17T09:45:29.329Z,0
2023-01-17T09:46:23.534Z,0
2023-01-17T09:47:25.479Z,0
2023-01-17T09:48:31.480Z,0
2023-01-17T09:49:24.415Z,0
2023-01-17T09:50:25.204Z,0
2023-01-17T09:51:31.451Z,0
2023-01-17T09:52:27.878Z,0
2023-01-17T09:53:25.595Z,0
2023-01-17T09:54:19.726Z,0
2023-01-17T09:55:30.015Z,0
2023-01-17T09:56:29.663Z,0
2023-01-17T09:57:21.497Z,0
2023-01-17T09:58:20.961Z,0
2023-01-17T09:59:33.057Z,0
2023-01-17T10:00:23.581Z,0
2023-01-17T10:01:24.082Z,0
2023-01-17T10:02:30.164Z,1
2023-01-17T10:03:25.371Z,4
2023-01-17T10:04:21.678Z,3
2023-01-17T10:05:31.950Z,2
2023-01-17T10:06:27.479Z,2
2023-01-17T10:07:24.991Z,5
2023-01-17T10:08:19.488Z,3
2023-01-17T10:09:29.854Z,2
2023-01-17T10:10:26.659Z,6
2023-01-17T10:11:21.384Z,3
2023-01-17T10:12:21.412Z,4
2023-01-17T10:13:27.808Z,6
2023-01-17T10:14:39.225Z,6
2023-01-17T10:15:22.175Z,4
2023-01-17T10:16:31.810Z,3
2023-01-17T10:17:25.727Z,9
2023-01-17T10:18:30.049Z,5
2023-01-17T10:19:22.687Z,4
2023-01-17T10:20:27.767Z,5
2023-01-17T10:21:24.464Z,6
2023-01-17T10:22:20.059Z,6
2023-01-17T10:23:29.612Z,2
2023-01-17T10:24:41.070Z,1
2023-01-17T10:25:22.312Z,0
2023-01-17T10:26:21.252Z,0
2023-01-17T10:27:23.524Z,1
2023-01-17T10:28:24.505Z,5
2023-01-17T10:29:21.605Z,6
2023-01-17T10:30:20.784Z,3
2023-01-17T10:31:25.695Z,1
2023-01-17T10:32:23.584Z,2
2023-01-17T10:33:28.429Z,0
2023-01-17T10:34:28.229Z,4
2023-01-17T10:35:25.563Z,3
2023-01-17T10:36:19.975Z,5
2023-01-17T10:37:23.771Z,3
2023-01-17T10:38:25.629Z,5
2023-01-17T10:39:21.815Z,4
2023-01-17T10:40:40.300Z,7
2023-01-17T10:41:29.073Z,6
2023-01-17T10:42:25.185Z,9
2023-01-17T10:43:21.953Z,0
2023-01-17T10:44:26.995Z,2
2023-01-17T10:45:48.932Z,0
2023-01-17T10:47:32.664Z,5
2023-01-17T10:48:23.684Z,0
2023-01-17T10:50:22.322Z,6
2023-01-17T10:51:46.379Z,6
2023-01-17T10:52:39.755Z,4
2023-01-17T10:53:21.746Z,8
2023-01-17T10:54:39.232Z,5
2023-01-17T10:55:24.803Z,5
2023-01-17T10:56:24.227Z,5
2023-01-17T10:57:21.233Z,6
2023-01-17T10:58:20.033Z,6
2023-01-17T10:59:19.740Z,6
2023-01-17T11:00:23.703Z,7
2023-01-17T11:01:33.900Z,7
2023-01-17T11:02:28.022Z,4
2023-01-17T11:03:24.784Z,5
2023-01-17T11:04:35.571Z,8
2023-01-17T11:05:25.404Z,0
2023-01-17T11:06:22.828Z,6
2023-01-17T11:07:21.636Z,0
2023-01-17T11:08:31.802Z,5
2023-01-17T11:09:29.284Z,7
2023-01-17T11:10:23.525Z,2
2023-01-17T11:11:22.821Z,3
2023-01-17T11:12:28.189Z,6
2023-01-17T11:13:23.637Z,6
2023-01-17T11:14:22.210Z,4
2023-01-17T11:15:48.895Z,5
2023-01-17T11:16:29.812Z,4
2023-01-17T11:17:27.550Z,8
2023-01-17T11:19:32.323Z,3
2023-01-17T11:20:25.793Z,3
2023-01-17T11:21:21.444Z,4
2023-01-17T11:22:31.637Z,1
2023-01-17T11:23:32.459Z,5
2023-01-17T11:24:38.150Z,0
2023-01-17T11:25:21.839Z,0
2023-01-17T11:26:38.993Z,3
2023-01-17T11:27:32.801Z,1
2023-01-17T11:28:24.790Z,0
2023-01-17T11:31:26.516Z,1
2023-01-17T11:32:20.275Z,4
2023-01-17T11:33:31.693Z,4
2023-01-17T11:34:28.312Z,2
2023-01-17T11:35:28.774Z,5
2023-01-17T11:36:20.063Z,4
2023-01-17T11:37:29.891Z,7
2023-01-17T11:38:29.747Z,2
2023-01-17T11:39:20.010Z,2
2023-01-17T11:40:34.377Z,3
2023-01-17T11:41:38.294Z,3
2023-01-17T11:42:26.297Z,3
2023-01-17T12:11:25.121Z,7
2023-01-17T12:14:21.949Z,5
2023-01-17T12:18:26.506Z,7
2023-01-17T12:19:30.077Z,6
2023-01-17T12:22:23.033Z,10
2023-01-17T12:23:25.881Z,6
2023-01-17T12:24:21.613Z,6
2023-01-17T12:25:34.108Z,10
2023-01-17T12:26:39.447Z,3
2023-01-17T12:27:25.530Z,5
2023-01-17T12:28:19.550Z,4
2023-01-17T12:29:24.538Z,8
2023-01-17T12:30:25.236Z,5
2023-01-17T12:32:34.423Z,4
2023-01-17T12:33:19.930Z,9
2023-01-17T12:34:37.276Z,2
2023-01-17T12:35:28.386Z,5
2023-01-17T12:37:52.698Z,10
2023-01-17T12:42:34.128Z,10
2023-01-17T12:43:27.764Z,13
2023-01-17T12:50:30.937Z,6
2023-01-17T12:51:22.495Z,5
2023-01-17T12:52:21.877Z,11
2023-01-17T12:54:28.584Z,10
2023-01-17T12:55:48.956Z,8
2023-01-17T12:56:42.736Z,8
2023-01-17T12:57:30.038Z,9
2023-01-17T12:58:26.650Z,10
2023-01-17T12:59:21.648Z,11
2023-01-17T13:00:32.716Z,4
2023-01-17T13:01:27.664Z,8
2023-01-17T13:02:23.940Z,7
2023-01-17T13:03:19.991Z,11
2023-01-17T13:04:30.745Z,4
2023-01-17T13:05:26.605Z,14
2023-01-17T13:06:23.298Z,10
2023-01-17T13:07:24.458Z,10
2023-01-17T13:08:27.500Z,7
2023-01-17T13:09:23.638Z,6
2023-01-17T13:10:19.755Z,5
2023-01-17T13:11:44.248Z,9
2023-01-17T13:12:27.428Z,7
2023-01-17T13:13:22.413Z,4
2023-01-17T13:14:21.328Z,4
2023-01-17T13:15:22.217Z,4
2023-01-17T13:16:25.435Z,5
2023-01-17T13:17:20.310Z,12
2023-01-17T13:18:31.287Z,11
2023-01-17T13:19:25.467Z,7
2023-01-17T13:20:21.633Z,5
2023-01-17T13:21:24.765Z,6
2023-01-17T13:22:23.967Z,5
2023-01-17T13:23:23.560Z,8
2023-01-17T13:24:35.207Z,10
2023-01-17T13:25:29.878Z,10
2023-01-17T13:26:27.036Z,9
2023-01-17T13:27:22.710Z,9
2023-01-17T13:28:28.668Z,11
2023-01-17T13:29:22.905Z,10
2023-01-17T13:30:20.825Z,9
2023-01-17T13:31:35.065Z,6
2023-01-17T13:32:28.249Z,8
2023-01-17T13:33:39.851Z,6
2023-01-17T13:35:32.320Z,7
2023-01-17T13:38:20.710Z,12
2023-01-17T14:10:27.767Z,6
2023-01-17T14:20:37.951Z,0
2023-01-17T15:55:27.830Z,0
2023-01-17T15:57:39.607Z,0
2023-01-17T15:58:30.197Z,0
2023-01-17T15:59:20.791Z,0
2023-01-17T16:00:24.571Z,0
2023-01-17T16:01:30.949Z,0
2023-01-17T16:02:22.294Z,0
2023-01-17T16:03:20.645Z,0
2023-01-17T16:04:25.978Z,0
2023-01-17T16:05:20.944Z,0
2023-01-17T16:06:24.004Z,0
2023-01-17T16:07:28.546Z,0
2023-01-17T16:09:26.543Z,0
2023-01-17T16:10:20.445Z,0
2023-01-17T16:11:38.018Z,0
2023-01-17T16:12:20.017Z,0
2023-01-17T16:13:29.881Z,0
2023-01-17T16:14:51.334Z,0
2023-01-17T16:15:21.798Z,0
2023-01-17T16:16:35.871Z,0
2023-01-17T16:17:24.875Z,0
2023-01-17T16:18:39.727Z,0
2023-01-17T16:19:20.017Z,0
2023-01-17T16:20:24.173Z,0
2023-01-17T16:21:26.381Z,0
2023-01-17T16:22:22.433Z,0
2023-01-17T16:23:22.893Z,0
2023-01-17T16:24:28.251Z,0
2023-01-17T16:25:23.673Z,0
2023-01-17T16:26:19.865Z,0
2023-01-17T16:27:34.230Z,1
2023-01-17T16:28:20.526Z,1
2023-01-17T16:29:21.690Z,0
2023-01-17T16:30:26.226Z,0
2023-01-17T16:31:32.956Z,0
2023-01-17T16:32:25.913Z,0
2023-01-17T16:33:20.460Z,0
2023-01-17T16:34:32.878Z,0
2023-01-17T16:35:23.008Z,0
2023-01-17T16:36:22.937Z,0
2023-01-17T16:37:24.075Z,0
2023-01-17T16:38:23.329Z,0
2023-01-17T16:39:24.314Z,0
2023-01-17T16:40:19.848Z,0
2023-01-17T16:41:32.638Z,0
2023-01-17T16:42:41.451Z,0
2023-01-17T16:43:21.750Z,0
2023-01-17T16:44:34.499Z,0
2023-01-17T16:45:29.860Z,0
2023-01-17T16:46:21.559Z,0
2023-01-17T16:47:19.914Z,0
2023-01-17T16:48:22.365Z,0
2023-01-17T16:49:28.736Z,0
2023-01-17T16:50:35.736Z,0
2023-01-17T16:51:33.029Z,0
2023-01-17T16:52:27.901Z,0
2023-01-17T16:53:26.018Z,0
2023-01-17T16:55:32.396Z,0
2023-01-17T16:56:26.592Z,0
2023-01-17T16:57:35.776Z,0
2023-01-17T16:58:33.624Z,0
2023-01-17T16:59:36.815Z,0
2023-01-17T17:00:29.791Z,0
2023-01-17T17:01:21.422Z,0
2023-01-17T17:02:29.830Z,0
2023-01-17T17:03:23.699Z,0
2023-01-17T17:04:37.344Z,0
2023-01-17T17:05:22.816Z,0
2023-01-17T17:06:29.243Z,0
2023-01-17T17:07:24.604Z,0
2023-01-17T17:08:20.365Z,0
2023-01-17T17:09:29.751Z,0
2023-01-17T17:10:27.599Z,0
2023-01-17T17:11:27.015Z,0
2023-01-17T17:12:32.913Z,0
2023-01-17T17:13:28.548Z,0
2023-01-17T17:14:24.569Z,0
2023-01-17T17:15:30.226Z,0
2023-01-17T17:16:22.511Z,0
2023-01-17T17:17:27.639Z,0
2023-01-17T17:18:24.554Z,0
2023-01-17T17:19:32.056Z,0
2023-01-17T17:20:29.659Z,0
2023-01-17T17:21:23.828Z,0
2023-01-17T17:22:21.653Z,0
2023-01-17T17:23:26.518Z,0
2023-01-17T17:24:25.772Z,0
2023-01-17T17:25:23.582Z,0
2023-01-17T17:26:20.616Z,0
2023-01-17T17:27:28.183Z,0
2023-01-17T17:28:26.125Z,0
2023-01-17T17:29:25.656Z,0
2023-01-17T17:30:30.125Z,0
2023-01-17T17:31:27.005Z,0
2023-01-17T17:32:21.805Z,0
2023-01-17T17:33:25.964Z,0
2023-01-17T17:34:28.170Z,0
2023-01-17T17:35:23.980Z,0
2023-01-17T17:36:21.587Z,0
2023-01-17T17:37:31.579Z,0
2023-01-17T17:38:27.952Z,0
2023-01-17T17:39:23.476Z,0
2023-01-17T17:40:24.281Z,0
2023-01-17T17:41:21.887Z,0
2023-01-17T17:42:24.765Z,0
2023-01-17T17:43:20.564Z,0
2023-01-17T17:44:30.068Z,0
2023-01-17T17:45:26.595Z,0
2023-01-17T17:46:26.234Z,0
2023-01-17T17:47:26.737Z,0
2023-01-17T17:48:30.236Z,0
2023-01-17T17:49:24.109Z,0
2023-01-17T17:50:19.761Z,0
2023-01-17T17:51:23.986Z,0
2023-01-17T17:52:36.776Z,0
2023-01-17T17:53:22.483Z,0
2023-01-17T17:54:22.709Z,0
2023-01-17T17:55:30.065Z,0
2023-01-17T17:56:25.736Z,0
2023-01-17T17:57:20.243Z,0
2023-01-17T17:58:24.639Z,0
2023-01-17T17:59:27.410Z,0
2023-01-17T18:00:22.102Z,0
2023-01-17T18:01:20.987Z,0
2023-01-17T18:02:20.020Z,0
2023-01-17T18:03:25.936Z,0
2023-01-17T18:04:20.697Z,0
2023-01-17T18:05:29.841Z,0
2023-01-17T18:06:27.051Z,0
2023-01-17T18:07:22.081Z,0
2023-01-17T18:08:31.776Z,0
2023-01-17T18:09:22.609Z,0
2023-01-17T18:10:24.689Z,0
2023-01-17T18:11:20.726Z,0
2023-01-17T18:12:31.610Z,0
2023-01-17T18:13:25.908Z,0
2023-01-17T18:14:22.724Z,0
2023-01-17T18:15:33.328Z,0
2023-01-17T18:16:29.734Z,0
2023-01-17T18:17:23.923Z,0
2023-01-17T18:18:20.473Z,0
2023-01-17T18:19:23.179Z,0
2023-01-17T18:20:21.084Z,0
2023-01-17T18:21:22.661Z,0
2023-01-17T18:22:32.325Z,0
2023-01-17T18:23:32.795Z,0
2023-01-17T18:24:23.934Z,0
2023-01-17T18:25:19.933Z,0
2023-01-17T18:26:26.712Z,0
2023-01-17T18:27:20.831Z,0
2023-01-17T18:28:22.034Z,0
2023-01-17T18:29:22.425Z,0
2023-01-17T18:30:29.088Z,0
2023-01-17T18:31:24.561Z,0
2023-01-17T18:32:21.504Z,0
2023-01-17T18:33:33.854Z,0
2023-01-17T18:34:26.805Z,0
2023-01-17T18:35:21.856Z,0
2023-01-17T18:36:32.108Z,0
2023-01-17T18:37:28.732Z,0
2023-01-17T18:38:25.849Z,0
2023-01-17T18:39:19.885Z,0
2023-01-17T18:40:30.205Z,0
2023-01-17T18:41:27.792Z,0
2023-01-17T18:42:23.357Z,0
2023-01-17T18:43:32.133Z,0
2023-01-17T18:44:29.827Z,0
2023-01-17T18:45:24.837Z,0
2023-01-17T18:46:21.914Z,0
2023-01-17T18:47:21.161Z,0
2023-01-17T18:48:26.129Z,0
2023-01-17T18:49:22.231Z,0
2023-01-17T18:50:33.386Z,0
2023-01-17T18:51:28.096Z,0
2023-01-17T18:52:29.253Z,0
2023-01-17T18:53:19.801Z,0
2023-01-17T18:54:25.407Z,0
2023-01-17T18:55:28.847Z,0
2023-01-17T18:56:22.808Z,0
2023-01-17T18:57:24.316Z,0
2023-01-17T18:58:29.918Z,0
2023-01-17T18:59:24.130Z,0
2023-01-17T19:00:36.507Z,0
2023-01-17T19:01:34.309Z,0
2023-01-17T19:02:22.414Z,0
2023-01-17T19:03:28.035Z,0
2023-01-17T19:04:26.687Z,0
2023-01-17T19:05:21.597Z,0
2023-01-17T19:06:25.492Z,0
2023-01-17T19:07:21.310Z,0
2023-01-17T19:08:33.044Z,0
2023-01-17T19:09:30.244Z,0
2023-01-17T19:10:22.159Z,0
2023-01-17T19:11:31.849Z,0
2023-01-17T19:12:24.321Z,0
2023-01-17T19:13:24.418Z,0
2023-01-17T19:14:24.874Z,0
2023-01-17T19:15:29.887Z,0
2023-01-17T19:16:26.177Z,0
2023-01-17T19:17:25.424Z,0
2023-01-17T19:18:33.639Z,0
2023-01-17T19:19:28.409Z,0
2023-01-17T19:20:26.152Z,0
2023-01-17T19:21:20.106Z,0
2023-01-17T19:22:29.974Z,0
2023-01-17T19:23:35.429Z,0
2023-01-17T19:24:22.112Z,0
2023-01-17T19:25:23.586Z,0
2023-01-17T19:26:28.495Z,0
2023-01-17T19:27:26.027Z,0
2023-01-17T19:28:29.931Z,0
2023-01-17T19:29:32.176Z,0
2023-01-17T19:30:26.429Z,0
2023-01-17T19:31:24.935Z,0
2023-01-17T19:32:24.963Z,0
2023-01-17T19:33:28.935Z,0
2023-01-17T19:34:23.863Z,0
2023-01-17T19:35:23.669Z,0
2023-01-17T19:36:20.609Z,0
2023-01-17T19:37:27.890Z,0
2023-01-17T19:38:37.496Z,0
2023-01-17T19:39:29.119Z,0
2023-01-17T19:40:21.356Z,0
2023-01-17T19:41:23.795Z,0
2023-01-17T19:42:19.893Z,0